sensor_id;sensor_type;location;lat;lon;timestamp;temperature;humidity
71514;DHT22;59335;46.652;21.272;2023-08-06T00:01:13;30.07;51.21
71514;DHT22;59335;46.652;21.272;2023-08-06T00:04:17;30.08;51.19
71514;DHT22;59335;46.652;21.272;2023-08-06T00:07:20;30.08;51.16
71514;DHT22;59335;46.652;21.272;2023-08-06T00:10:22;30.07;51.16
71514;DHT22;59335;46.652;21.272;2023-08-06T00:13:25;30.08;51.14
71514;DHT22;59335;46.652;21.272;2023-08-06T00:16:28;30.06;51.11
71514;DHT22;59335;46.652;21.272;2023-08-06T00:19:31;30.06;51.12
71514;DHT22;59335;46.652;21.272;2023-08-06T00:22:38;30.03;51.17
71514;DHT22;59335;46.652;21.272;2023-08-06T00:25:41;30.06;51.19
71514;DHT22;59335;46.652;21.272;2023-08-06T00:28:43;30.04;51.12
71514;DHT22;59335;46.652;21.272;2023-08-06T00:31:46;30.06;51.22
71514;DHT22;59335;46.652;21.272;2023-08-06T00:34:49;30.03;51.19
71514;DHT22;59335;46.652;21.272;2023-08-06T00:37:51;30.03;51.23
71514;DHT22;59335;46.652;21.272;2023-08-06T00:40:54;30.03;51.22
71514;DHT22;59335;46.652;21.272;2023-08-06T00:43:57;30.04;51.18
71514;DHT22;59335;46.652;21.272;2023-08-06T00:46:59;30.00;51.22
71514;DHT22;59335;46.652;21.272;2023-08-06T00:50:02;30.01;51.21
71514;DHT22;59335;46.652;21.272;2023-08-06T00:53:05;29.97;51.25
71514;DHT22;59335;46.652;21.272;2023-08-06T00:56:09;30.00;51.20
71514;DHT22;59335;46.652;21.272;2023-08-06T00:59:12;30.00;51.25
71514;DHT22;59335;46.652;21.272;2023-08-06T01:02:15;30.00;51.23
71514;DHT22;59335;46.652;21.272;2023-08-06T01:05:18;30.00;51.18
71514;DHT22;59335;46.652;21.272;2023-08-06T01:14:57;30.00;51.25
71514;DHT22;59335;46.652;21.272;2023-08-06T01:18:02;29.99;51.26
71514;DHT22;59335;46.652;21.272;2023-08-06T01:21:04;29.97;51.21
71514;DHT22;59335;46.652;21.272;2023-08-06T01:24:07;29.99;51.17
71514;DHT22;59335;46.652;21.272;2023-08-06T01:27:15;29.97;51.18
71514;DHT22;59335;46.652;21.272;2023-08-06T01:30:25;29.96;51.13
71514;DHT22;59335;46.652;21.272;2023-08-06T01:33:30;30.03;51.17
71514;DHT22;59335;46.652;21.272;2023-08-06T01:36:36;29.99;51.12
71514;DHT22;59335;46.652;21.272;2023-08-06T01:39:40;29.99;51.18
71514;DHT22;59335;46.652;21.272;2023-08-06T01:42:44;29.97;51.11
71514;DHT22;59335;46.652;21.272;2023-08-06T01:45:48;29.96;51.13
71514;DHT22;59335;46.652;21.272;2023-08-06T01:48:51;29.97;51.15
71514;DHT22;59335;46.652;21.272;2023-08-06T01:51:54;29.94;51.12
71514;DHT22;59335;46.652;21.272;2023-08-06T01:54:56;29.96;51.06
71514;DHT22;59335;46.652;21.272;2023-08-06T01:57:59;29.94;51.08
71514;DHT22;59335;46.652;21.272;2023-08-06T02:01:02;29.94;51.11
71514;DHT22;59335;46.652;21.272;2023-08-06T02:04:04;29.93;51.07
71514;DHT22;59335;46.652;21.272;2023-08-06T02:07:07;29.93;51.04
71514;DHT22;59335;46.652;21.272;2023-08-06T02:10:10;29.93;51.12
71514;DHT22;59335;46.652;21.272;2023-08-06T02:13:12;29.91;51.06
71514;DHT22;59335;46.652;21.272;2023-08-06T02:16:15;29.96;51.03
71514;DHT22;59335;46.652;21.272;2023-08-06T02:19:18;29.93;51.03
71514;DHT22;59335;46.652;21.272;2023-08-06T02:22:21;29.93;51.00
71514;DHT22;59335;46.652;21.272;2023-08-06T02:25:25;29.93;51.08
71514;DHT22;59335;46.652;21.272;2023-08-06T02:28:28;29.93;50.97
71514;DHT22;59335;46.652;21.272;2023-08-06T02:31:31;29.94;51.03
71514;DHT22;59335;46.652;21.272;2023-08-06T02:34:34;29.91;51.00
71514;DHT22;59335;46.652;21.272;2023-08-06T02:37:37;29.93;50.95
71514;DHT22;59335;46.652;21.272;2023-08-06T02:40:46;29.94;50.98
71514;DHT22;59335;46.652;21.272;2023-08-06T02:43:49;29.94;50.97
71514;DHT22;59335;46.652;21.272;2023-08-06T02:46:52;29.93;50.94
71514;DHT22;59335;46.652;21.272;2023-08-06T02:49:55;29.91;51.04
71514;DHT22;59335;46.652;21.272;2023-08-06T02:52:57;29.93;51.00
71514;DHT22;59335;46.652;21.272;2023-08-06T02:56:00;29.93;50.90
71514;DHT22;59335;46.652;21.272;2023-08-06T02:59:12;29.91;50.97
71514;DHT22;59335;46.652;21.272;2023-08-06T03:02:37;29.93;50.95
71514;DHT22;59335;46.652;21.272;2023-08-06T03:05:57;29.91;50.99
71514;DHT22;59335;46.652;21.272;2023-08-06T03:09:09;29.90;50.95
71514;DHT22;59335;46.652;21.272;2023-08-06T03:12:12;29.91;50.97
71514;DHT22;59335;46.652;21.272;2023-08-06T03:15:15;29.90;50.92
71514;DHT22;59335;46.652;21.272;2023-08-06T03:18:18;29.91;50.95
71514;DHT22;59335;46.652;21.272;2023-08-06T03:21:21;29.90;50.93
71514;DHT22;59335;46.652;21.272;2023-08-06T03:24:24;29.91;50.86
71514;DHT22;59335;46.652;21.272;2023-08-06T03:27:26;29.90;50.93
71514;DHT22;59335;46.652;21.272;2023-08-06T03:30:29;29.93;50.85
71514;DHT22;59335;46.652;21.272;2023-08-06T03:33:32;29.87;50.93
71514;DHT22;59335;46.652;21.272;2023-08-06T03:36:36;29.90;50.87
71514;DHT22;59335;46.652;21.272;2023-08-06T03:39:41;29.84;50.94
71514;DHT22;59335;46.652;21.272;2023-08-06T03:42:44;29.84;50.91
71514;DHT22;59335;46.652;21.272;2023-08-06T03:45:46;29.86;50.89
71514;DHT22;59335;46.652;21.272;2023-08-06T03:48:49;29.86;50.89
71514;DHT22;59335;46.652;21.272;2023-08-06T03:51:52;29.87;50.81
71514;DHT22;59335;46.652;21.272;2023-08-06T03:54:55;29.84;50.84
71514;DHT22;59335;46.652;21.272;2023-08-06T03:57:58;29.87;50.80
71514;DHT22;59335;46.652;21.272;2023-08-06T04:01:02;29.87;50.79
71514;DHT22;59335;46.652;21.272;2023-08-06T04:04:14;29.86;50.81
71514;DHT22;59335;46.652;21.272;2023-08-06T04:07:17;29.86;50.81
71514;DHT22;59335;46.652;21.272;2023-08-06T04:10:19;29.87;50.75
71514;DHT22;59335;46.652;21.272;2023-08-06T04:13:22;29.87;50.72
71514;DHT22;59335;46.652;21.272;2023-08-06T04:16:24;29.89;50.69
71514;DHT22;59335;46.652;21.272;2023-08-06T04:19:28;29.86;50.77
71514;DHT22;59335;46.652;21.272;2023-08-06T04:22:31;29.86;50.72
71514;DHT22;59335;46.652;21.272;2023-08-06T04:25:34;29.84;50.79
71514;DHT22;59335;46.652;21.272;2023-08-06T04:28:36;29.87;50.69
71514;DHT22;59335;46.652;21.272;2023-08-06T04:31:39;29.83;50.72
71514;DHT22;59335;46.652;21.272;2023-08-06T04:34:43;29.86;50.66
71514;DHT22;59335;46.652;21.272;2023-08-06T04:37:45;29.89;50.64
71514;DHT22;59335;46.652;21.272;2023-08-06T04:40:48;29.84;50.71
71514;DHT22;59335;46.652;21.272;2023-08-06T04:43:51;29.87;50.61
71514;DHT22;59335;46.652;21.272;2023-08-06T04:46:53;29.86;50.61
71514;DHT22;59335;46.652;21.272;2023-08-06T04:49:56;29.84;50.65
71514;DHT22;59335;46.652;21.272;2023-08-06T04:52:58;29.84;50.65
71514;DHT22;59335;46.652;21.272;2023-08-06T04:56:01;29.86;50.57
71514;DHT22;59335;46.652;21.272;2023-08-06T04:59:04;29.84;50.61
71514;DHT22;59335;46.652;21.272;2023-08-06T05:02:06;29.84;50.60
71514;DHT22;59335;46.652;21.272;2023-08-06T05:05:09;29.84;50.52
71514;DHT22;59335;46.652;21.272;2023-08-06T05:08:15;29.83;50.65
71514;DHT22;59335;46.652;21.272;2023-08-06T05:11:19;29.86;50.53
71514;DHT22;59335;46.652;21.272;2023-08-06T05:14:21;29.84;50.53
71514;DHT22;59335;46.652;21.272;2023-08-06T05:17:24;29.86;50.59
71514;DHT22;59335;46.652;21.272;2023-08-06T05:20:27;29.83;50.62
71514;DHT22;59335;46.652;21.272;2023-08-06T05:23:29;29.87;50.49
71514;DHT22;59335;46.652;21.272;2023-08-06T05:26:32;29.83;50.52
71514;DHT22;59335;46.652;21.272;2023-08-06T05:29:34;29.83;50.48
71514;DHT22;59335;46.652;21.272;2023-08-06T05:32:37;29.84;50.44
71514;DHT22;59335;46.652;21.272;2023-08-06T05:35:41;29.84;50.38
71514;DHT22;59335;46.652;21.272;2023-08-06T05:38:44;29.84;50.31
71514;DHT22;59335;46.652;21.272;2023-08-06T05:41:47;29.81;50.30
71514;DHT22;59335;46.652;21.272;2023-08-06T05:44:50;29.83;50.26
71514;DHT22;59335;46.652;21.272;2023-08-06T05:47:52;29.86;50.22
71514;DHT22;59335;46.652;21.272;2023-08-06T05:50:56;29.86;50.28
71514;DHT22;59335;46.652;21.272;2023-08-06T05:53:59;29.84;50.27
71514;DHT22;59335;46.652;21.272;2023-08-06T05:57:02;29.81;50.34
71514;DHT22;59335;46.652;21.272;2023-08-06T06:00:05;29.86;50.24
71514;DHT22;59335;46.652;21.272;2023-08-06T06:03:13;29.84;50.22
71514;DHT22;59335;46.652;21.272;2023-08-06T06:06:16;29.81;50.27
71514;DHT22;59335;46.652;21.272;2023-08-06T06:09:20;29.83;50.28
71514;DHT22;59335;46.652;21.272;2023-08-06T06:12:23;29.83;50.25
71514;DHT22;59335;46.652;21.272;2023-08-06T06:15:28;29.83;50.20
71514;DHT22;59335;46.652;21.272;2023-08-06T06:18:30;29.81;50.21
71514;DHT22;59335;46.652;21.272;2023-08-06T06:21:33;29.80;50.21
71514;DHT22;59335;46.652;21.272;2023-08-06T06:24:36;29.81;50.18
71514;DHT22;59335;46.652;21.272;2023-08-06T06:27:38;29.83;50.24
71514;DHT22;59335;46.652;21.272;2023-08-06T06:30:42;29.81;50.14
71514;DHT22;59335;46.652;21.272;2023-08-06T06:33:44;29.83;50.11
71514;DHT22;59335;46.652;21.272;2023-08-06T06:36:47;29.83;50.15
71514;DHT22;59335;46.652;21.272;2023-08-06T06:39:49;29.81;50.12
71514;DHT22;59335;46.652;21.272;2023-08-06T06:42:52;29.80;50.13
71514;DHT22;59335;46.652;21.272;2023-08-06T06:45:56;29.80;50.14
71514;DHT22;59335;46.652;21.272;2023-08-06T06:49:00;29.83;50.09
71514;DHT22;59335;46.652;21.272;2023-08-06T06:52:03;29.80;50.09
71514;DHT22;59335;46.652;21.272;2023-08-06T06:55:06;29.83;50.01
71514;DHT22;59335;46.652;21.272;2023-08-06T06:58:08;29.83;50.05
71514;DHT22;59335;46.652;21.272;2023-08-06T07:01:11;29.83;50.03
71514;DHT22;59335;46.652;21.272;2023-08-06T07:04:14;29.86;50.01
71514;DHT22;59335;46.652;21.272;2023-08-06T07:07:17;29.86;50.02
71514;DHT22;59335;46.652;21.272;2023-08-06T07:10:19;29.83;50.00
71514;DHT22;59335;46.652;21.272;2023-08-06T07:13:22;29.81;50.04
71514;DHT22;59335;46.652;21.272;2023-08-06T07:16:25;29.84;50.05
71514;DHT22;59335;46.652;21.272;2023-08-06T07:19:28;29.84;50.00
71514;DHT22;59335;46.652;21.272;2023-08-06T07:22:30;29.84;49.96
71514;DHT22;59335;46.652;21.272;2023-08-06T07:25:33;29.84;50.01
71514;DHT22;59335;46.652;21.272;2023-08-06T07:28:36;29.87;49.95
71514;DHT22;59335;46.652;21.272;2023-08-06T07:31:39;29.83;49.94
71514;DHT22;59335;46.652;21.272;2023-08-06T07:34:42;29.81;49.96
71514;DHT22;59335;46.652;21.272;2023-08-06T07:37:44;29.81;49.96
71514;DHT22;59335;46.652;21.272;2023-08-06T07:40:47;29.84;50.00
71514;DHT22;59335;46.652;21.272;2023-08-06T07:43:50;29.81;49.96
71514;DHT22;59335;46.652;21.272;2023-08-06T07:46:52;29.80;50.02
71514;DHT22;59335;46.652;21.272;2023-08-06T07:49:55;29.80;50.00
71514;DHT22;59335;46.652;21.272;2023-08-06T07:52:57;29.80;50.01
71514;DHT22;59335;46.652;21.272;2023-08-06T07:56:00;29.79;50.07
71514;DHT22;59335;46.652;21.272;2023-08-06T07:59:04;29.80;50.05
71514;DHT22;59335;46.652;21.272;2023-08-06T08:02:07;29.81;50.02
71514;DHT22;59335;46.652;21.272;2023-08-06T08:05:09;29.83;50.01
71514;DHT22;59335;46.652;21.272;2023-08-06T08:08:12;29.80;50.00
71514;DHT22;59335;46.652;21.272;2023-08-06T08:11:14;29.80;50.02
71514;DHT22;59335;46.652;21.272;2023-08-06T08:14:18;29.84;50.00
71514;DHT22;59335;46.652;21.272;2023-08-06T08:17:20;29.84;50.00
71514;DHT22;59335;46.652;21.272;2023-08-06T08:20:23;29.81;49.98
71514;DHT22;59335;46.652;21.272;2023-08-06T08:23:26;29.84;49.98
71514;DHT22;59335;46.652;21.272;2023-08-06T08:26:28;29.84;50.05
71514;DHT22;59335;46.652;21.272;2023-08-06T08:29:31;29.87;49.95
71514;DHT22;59335;46.652;21.272;2023-08-06T08:32:34;29.86;49.91
71514;DHT22;59335;46.652;21.272;2023-08-06T08:35:37;29.84;49.90
71514;DHT22;59335;46.652;21.272;2023-08-06T08:38:39;29.83;49.92
71514;DHT22;59335;46.652;21.272;2023-08-06T08:41:43;29.86;49.87
71514;DHT22;59335;46.652;21.272;2023-08-06T08:44:45;29.83;49.91
71514;DHT22;59335;46.652;21.272;2023-08-06T08:47:48;29.83;49.90
71514;DHT22;59335;46.652;21.272;2023-08-06T08:50:51;29.86;49.86
71514;DHT22;59335;46.652;21.272;2023-08-06T08:53:55;29.84;49.88
71514;DHT22;59335;46.652;21.272;2023-08-06T08:57:01;29.86;49.92
71514;DHT22;59335;46.652;21.272;2023-08-06T09:00:04;29.84;49.98
71514;DHT22;59335;46.652;21.272;2023-08-06T09:03:08;29.84;50.02
71514;DHT22;59335;46.652;21.272;2023-08-06T09:06:11;29.87;50.03
71514;DHT22;59335;46.652;21.272;2023-08-06T09:09:25;29.83;50.09
71514;DHT22;59335;46.652;21.272;2023-08-06T09:12:28;29.86;50.14
71514;DHT22;59335;46.652;21.272;2023-08-06T09:15:31;29.86;50.15
71514;DHT22;59335;46.652;21.272;2023-08-06T09:18:34;29.84;50.15
71514;DHT22;59335;46.652;21.272;2023-08-06T09:21:39;29.83;50.22
71514;DHT22;59335;46.652;21.272;2023-08-06T09:24:43;29.80;50.25
71514;DHT22;59335;46.652;21.272;2023-08-06T09:27:46;29.81;50.22
71514;DHT22;59335;46.652;21.272;2023-08-06T09:30:50;29.83;50.16
71514;DHT22;59335;46.652;21.272;2023-08-06T09:33:59;29.84;50.14
71514;DHT22;59335;46.652;21.272;2023-08-06T09:37:03;29.81;50.17
71514;DHT22;59335;46.652;21.272;2023-08-06T09:43:29;29.84;50.15
71514;DHT22;59335;46.652;21.272;2023-08-06T09:46:32;29.90;50.10
71514;DHT22;59335;46.652;21.272;2023-08-06T09:52:38;29.89;50.10
71514;DHT22;59335;46.652;21.272;2023-08-06T09:55:40;29.90;50.05
71514;DHT22;59335;46.652;21.272;2023-08-06T09:58:44;29.91;50.08
71514;DHT22;59335;46.652;21.272;2023-08-06T10:01:46;29.91;50.03
71514;DHT22;59335;46.652;21.272;2023-08-06T10:04:49;29.90;50.05
71514;DHT22;59335;46.652;21.272;2023-08-06T10:07:57;29.91;50.08
71514;DHT22;59335;46.652;21.272;2023-08-06T10:11:03;29.91;50.07
71514;DHT22;59335;46.652;21.272;2023-08-06T10:14:23;29.93;50.10
71514;DHT22;59335;46.652;21.272;2023-08-06T10:17:28;29.93;50.08
71514;DHT22;59335;46.652;21.272;2023-08-06T10:20:46;29.97;49.96
71514;DHT22;59335;46.652;21.272;2023-08-06T10:23:54;29.96;49.92
71514;DHT22;59335;46.652;21.272;2023-08-06T10:26:58;29.97;49.85
71514;DHT22;59335;46.652;21.272;2023-08-06T10:30:32;29.99;49.80
71514;DHT22;59335;46.652;21.272;2023-08-06T10:33:42;30.00;49.77
71514;DHT22;59335;46.652;21.272;2023-08-06T10:36:45;30.00;49.78
71514;DHT22;59335;46.652;21.272;2023-08-06T10:39:52;29.99;49.76
71514;DHT22;59335;46.652;21.272;2023-08-06T10:42:54;30.00;49.68
71514;DHT22;59335;46.652;21.272;2023-08-06T10:45:59;30.01;49.68
71514;DHT22;59335;46.652;21.272;2023-08-06T10:49:02;30.01;49.62
71514;DHT22;59335;46.652;21.272;2023-08-06T10:52:05;30.03;49.56
71514;DHT22;59335;46.652;21.272;2023-08-06T10:55:08;30.04;49.58
71514;DHT22;59335;46.652;21.272;2023-08-06T10:58:15;30.06;49.56
71514;DHT22;59335;46.652;21.272;2023-08-06T11:01:18;30.04;49.58
71514;DHT22;59335;46.652;21.272;2023-08-06T11:04:21;30.06;49.54
71514;DHT22;59335;46.652;21.272;2023-08-06T11:07:23;30.04;49.49
71514;DHT22;59335;46.652;21.272;2023-08-06T11:10:34;30.06;49.38
71514;DHT22;59335;46.652;21.272;2023-08-06T11:13:37;30.04;49.37
71514;DHT22;59335;46.652;21.272;2023-08-06T11:16:41;30.07;49.37
71514;DHT22;59335;46.652;21.272;2023-08-06T11:19:43;30.06;49.26
71514;DHT22;59335;46.652;21.272;2023-08-06T11:22:46;30.07;49.24
71514;DHT22;59335;46.652;21.272;2023-08-06T11:25:48;30.06;49.20
71514;DHT22;59335;46.652;21.272;2023-08-06T11:28:51;30.06;49.21
71514;DHT22;59335;46.652;21.272;2023-08-06T11:32:03;30.10;49.13
71514;DHT22;59335;46.652;21.272;2023-08-06T11:35:10;30.06;49.13
71514;DHT22;59335;46.652;21.272;2023-08-06T11:38:13;30.07;49.08
71514;DHT22;59335;46.652;21.272;2023-08-06T11:41:18;30.07;49.10
71514;DHT22;59335;46.652;21.272;2023-08-06T11:44:22;30.11;49.07
71514;DHT22;59335;46.652;21.272;2023-08-06T11:47:25;30.08;49.00
71514;DHT22;59335;46.652;21.272;2023-08-06T11:50:27;30.08;49.02
71514;DHT22;59335;46.652;21.272;2023-08-06T11:53:30;30.08;48.92
71514;DHT22;59335;46.652;21.272;2023-08-06T11:56:33;30.08;48.89
71514;DHT22;59335;46.652;21.272;2023-08-06T11:59:38;30.11;48.93
71514;DHT22;59335;46.652;21.272;2023-08-06T12:02:42;30.10;48.86
71514;DHT22;59335;46.652;21.272;2023-08-06T12:05:45;30.10;48.78
71514;DHT22;59335;46.652;21.272;2023-08-06T12:08:49;30.11;48.71
71514;DHT22;59335;46.652;21.272;2023-08-06T12:11:53;30.10;48.66
71514;DHT22;59335;46.652;21.272;2023-08-06T12:14:56;30.08;48.66
71514;DHT22;59335;46.652;21.272;2023-08-06T12:17:58;30.11;48.58
71514;DHT22;59335;46.652;21.272;2023-08-06T12:21:01;30.11;48.58
71514;DHT22;59335;46.652;21.272;2023-08-06T12:24:04;30.10;48.52
71514;DHT22;59335;46.652;21.272;2023-08-06T12:27:09;30.13;48.48
71514;DHT22;59335;46.652;21.272;2023-08-06T12:30:12;30.11;48.52
71514;DHT22;59335;46.652;21.272;2023-08-06T12:33:15;30.11;48.49
71514;DHT22;59335;46.652;21.272;2023-08-06T12:36:18;30.11;48.49
71514;DHT22;59335;46.652;21.272;2023-08-06T12:39:21;30.13;48.42
71514;DHT22;59335;46.652;21.272;2023-08-06T12:42:23;30.08;48.44
71514;DHT22;59335;46.652;21.272;2023-08-06T12:45:26;30.10;48.39
71514;DHT22;59335;46.652;21.272;2023-08-06T12:48:29;30.11;48.36
71514;DHT22;59335;46.652;21.272;2023-08-06T12:51:32;30.10;48.34
71514;DHT22;59335;46.652;21.272;2023-08-06T12:54:36;30.07;48.30
71514;DHT22;59335;46.652;21.272;2023-08-06T12:57:39;30.13;48.23
71514;DHT22;59335;46.652;21.272;2023-08-06T13:00:58;30.13;48.23
71514;DHT22;59335;46.652;21.272;2023-08-06T13:04:02;30.08;48.17
71514;DHT22;59335;46.652;21.272;2023-08-06T13:07:23;30.10;48.12
71514;DHT22;59335;46.652;21.272;2023-08-06T13:10:26;30.08;48.08
71514;DHT22;59335;46.652;21.272;2023-08-06T13:13:31;30.10;48.00
71514;DHT22;59335;46.652;21.272;2023-08-06T13:16:36;30.10;47.92
71514;DHT22;59335;46.652;21.272;2023-08-06T13:19:39;30.10;47.91
71514;DHT22;59335;46.652;21.272;2023-08-06T13:22:42;30.08;47.86
71514;DHT22;59335;46.652;21.272;2023-08-06T13:25:47;30.11;47.79
71514;DHT22;59335;46.652;21.272;2023-08-06T13:28:50;30.10;47.70
71514;DHT22;59335;46.652;21.272;2023-08-06T13:31:53;30.07;47.68
71514;DHT22;59335;46.652;21.272;2023-08-06T13:34:56;30.08;47.55
71514;DHT22;59335;46.652;21.272;2023-08-06T13:37:59;30.07;47.50
71514;DHT22;59335;46.652;21.272;2023-08-06T13:41:05;30.08;47.41
71514;DHT22;59335;46.652;21.272;2023-08-06T13:44:09;30.07;47.40
71514;DHT22;59335;46.652;21.272;2023-08-06T13:47:13;30.07;47.28
71514;DHT22;59335;46.652;21.272;2023-08-06T13:50:16;30.08;47.23
71514;DHT22;59335;46.652;21.272;2023-08-06T13:53:37;30.07;47.25
71514;DHT22;59335;46.652;21.272;2023-08-06T13:56:40;30.07;47.15
71514;DHT22;59335;46.652;21.272;2023-08-06T13:59:43;30.08;47.13
71514;DHT22;59335;46.652;21.272;2023-08-06T14:02:47;30.07;46.99
71514;DHT22;59335;46.652;21.272;2023-08-06T14:05:50;30.06;46.83
71514;DHT22;59335;46.652;21.272;2023-08-06T14:08:54;30.04;46.71
71514;DHT22;59335;46.652;21.272;2023-08-06T14:11:58;30.07;46.70
71514;DHT22;59335;46.652;21.272;2023-08-06T14:15:01;30.06;46.62
71514;DHT22;59335;46.652;21.272;2023-08-06T14:18:07;30.06;46.59
71514;DHT22;59335;46.652;21.272;2023-08-06T14:21:11;30.06;46.65
71514;DHT22;59335;46.652;21.272;2023-08-06T14:24:14;30.06;46.56
71514;DHT22;59335;46.652;21.272;2023-08-06T14:27:17;30.06;46.61
71514;DHT22;59335;46.652;21.272;2023-08-06T14:30:20;30.06;46.58
71514;DHT22;59335;46.652;21.272;2023-08-06T14:33:24;30.06;46.59
71514;DHT22;59335;46.652;21.272;2023-08-06T14:36:29;30.04;46.54
71514;DHT22;59335;46.652;21.272;2023-08-06T14:39:33;30.03;46.51
71514;DHT22;59335;46.652;21.272;2023-08-06T14:42:35;30.04;46.46
71514;DHT22;59335;46.652;21.272;2023-08-06T14:45:39;30.04;46.43
71514;DHT22;59335;46.652;21.272;2023-08-06T14:48:43;30.03;46.38
71514;DHT22;59335;46.652;21.272;2023-08-06T14:51:46;30.04;46.25
71514;DHT22;59335;46.652;21.272;2023-08-06T14:54:49;30.03;46.21
71514;DHT22;59335;46.652;21.272;2023-08-06T14:57:55;30.00;46.18
71514;DHT22;59335;46.652;21.272;2023-08-06T15:00:58;30.03;46.22
71514;DHT22;59335;46.652;21.272;2023-08-06T15:04:01;30.03;46.12
71514;DHT22;59335;46.652;21.272;2023-08-06T15:07:07;30.01;46.15
71514;DHT22;59335;46.652;21.272;2023-08-06T15:10:14;30.01;46.05
71514;DHT22;59335;46.652;21.272;2023-08-06T15:13:29;30.00;45.98
71514;DHT22;59335;46.652;21.272;2023-08-06T15:16:33;29.99;45.98
71514;DHT22;59335;46.652;21.272;2023-08-06T15:19:37;30.00;45.80
71514;DHT22;59335;46.652;21.272;2023-08-06T15:22:40;30.03;45.81
71514;DHT22;59335;46.652;21.272;2023-08-06T15:25:44;30.00;45.65
71514;DHT22;59335;46.652;21.272;2023-08-06T15:28:47;29.99;45.61
71514;DHT22;59335;46.652;21.272;2023-08-06T15:31:50;30.00;45.60
71514;DHT22;59335;46.652;21.272;2023-08-06T15:34:53;29.99;45.58
71514;DHT22;59335;46.652;21.272;2023-08-06T15:37:57;29.99;45.45
71514;DHT22;59335;46.652;21.272;2023-08-06T15:41:00;29.97;45.37
71514;DHT22;59335;46.652;21.272;2023-08-06T15:44:03;29.96;45.33
71514;DHT22;59335;46.652;21.272;2023-08-06T15:47:07;29.97;45.28
71514;DHT22;59335;46.652;21.272;2023-08-06T15:50:10;29.97;45.28
71514;DHT22;59335;46.652;21.272;2023-08-06T15:53:13;29.96;45.30
71514;DHT22;59335;46.652;21.272;2023-08-06T15:56:16;29.96;45.25
71514;DHT22;59335;46.652;21.272;2023-08-06T15:59:30;29.97;45.28
71514;DHT22;59335;46.652;21.272;2023-08-06T16:02:34;29.96;45.25
71514;DHT22;59335;46.652;21.272;2023-08-06T16:05:37;29.94;45.23
71514;DHT22;59335;46.652;21.272;2023-08-06T16:08:40;29.96;45.32
71514;DHT22;59335;46.652;21.272;2023-08-06T16:11:44;29.93;45.31
71514;DHT22;59335;46.652;21.272;2023-08-06T16:14:48;29.93;45.25
71514;DHT22;59335;46.652;21.272;2023-08-06T16:17:51;29.90;45.18
71514;DHT22;59335;46.652;21.272;2023-08-06T16:20:55;29.90;45.07
71514;DHT22;59335;46.652;21.272;2023-08-06T16:23:58;29.90;45.01
71514;DHT22;59335;46.652;21.272;2023-08-06T16:27:02;29.93;45.02
71514;DHT22;59335;46.652;21.272;2023-08-06T16:30:06;29.93;45.07
71514;DHT22;59335;46.652;21.272;2023-08-06T16:33:11;29.90;44.96
71514;DHT22;59335;46.652;21.272;2023-08-06T16:36:14;29.90;44.91
71514;DHT22;59335;46.652;21.272;2023-08-06T16:39:17;29.87;44.82
71514;DHT22;59335;46.652;21.272;2023-08-06T16:42:23;29.87;44.79
71514;DHT22;59335;46.652;21.272;2023-08-06T16:45:26;29.90;44.88
71514;DHT22;59335;46.652;21.272;2023-08-06T16:48:30;29.90;44.86
71514;DHT22;59335;46.652;21.272;2023-08-06T16:51:33;29.90;45.00
71514;DHT22;59335;46.652;21.272;2023-08-06T16:54:36;29.87;44.97
71514;DHT22;59335;46.652;21.272;2023-08-06T16:57:40;29.86;45.16
71514;DHT22;59335;46.652;21.272;2023-08-06T17:00:47;29.87;45.29
71514;DHT22;59335;46.652;21.272;2023-08-06T17:03:50;29.86;45.32
71514;DHT22;59335;46.652;21.272;2023-08-06T17:06:57;29.84;45.34
71514;DHT22;59335;46.652;21.272;2023-08-06T17:10:01;29.84;45.20
71514;DHT22;59335;46.652;21.272;2023-08-06T17:13:04;29.83;45.09
71514;DHT22;59335;46.652;21.272;2023-08-06T17:16:22;29.87;44.90
71514;DHT22;59335;46.652;21.272;2023-08-06T17:19:25;29.84;45.00
71514;DHT22;59335;46.652;21.272;2023-08-06T17:22:28;29.83;45.21
71514;DHT22;59335;46.652;21.272;2023-08-06T17:25:31;29.86;45.23
71514;DHT22;59335;46.652;21.272;2023-08-06T17:28:38;29.84;45.18
71514;DHT22;59335;46.652;21.272;2023-08-06T17:31:41;29.83;45.34
71514;DHT22;59335;46.652;21.272;2023-08-06T17:34:43;29.81;45.32
71514;DHT22;59335;46.652;21.272;2023-08-06T17:37:46;29.83;45.43
71514;DHT22;59335;46.652;21.272;2023-08-06T17:40:53;29.81;45.39
71514;DHT22;59335;46.652;21.272;2023-08-06T17:43:57;29.81;45.33
71514;DHT22;59335;46.652;21.272;2023-08-06T17:47:00;29.80;45.41
71514;DHT22;59335;46.652;21.272;2023-08-06T17:50:03;29.79;45.41
71514;DHT22;59335;46.652;21.272;2023-08-06T17:53:06;29.79;45.45
71514;DHT22;59335;46.652;21.272;2023-08-06T17:56:09;29.79;45.39
71514;DHT22;59335;46.652;21.272;2023-08-06T17:59:13;29.80;45.35
71514;DHT22;59335;46.652;21.272;2023-08-06T18:02:16;29.77;45.34
71514;DHT22;59335;46.652;21.272;2023-08-06T18:05:19;29.77;45.41
71514;DHT22;59335;46.652;21.272;2023-08-06T18:08:23;29.76;45.26
71514;DHT22;59335;46.652;21.272;2023-08-06T18:11:27;29.77;45.25
71514;DHT22;59335;46.652;21.272;2023-08-06T18:14:30;29.76;45.19
71514;DHT22;59335;46.652;21.272;2023-08-06T18:17:34;29.73;45.17
71514;DHT22;59335;46.652;21.272;2023-08-06T18:20:37;29.73;45.13
71514;DHT22;59335;46.652;21.272;2023-08-06T18:23:40;29.73;45.15
71514;DHT22;59335;46.652;21.272;2023-08-06T18:26:43;29.72;45.09
71514;DHT22;59335;46.652;21.272;2023-08-06T18:29:46;29.72;45.11
71514;DHT22;59335;46.652;21.272;2023-08-06T18:32:49;29.72;45.11
71514;DHT22;59335;46.652;21.272;2023-08-06T18:35:55;29.70;45.04
71514;DHT22;59335;46.652;21.272;2023-08-06T18:38:58;29.70;44.96
71514;DHT22;59335;46.652;21.272;2023-08-06T18:42:01;29.72;45.03
71514;DHT22;59335;46.652;21.272;2023-08-06T18:45:05;29.73;45.06
71514;DHT22;59335;46.652;21.272;2023-08-06T18:48:08;29.69;45.02
71514;DHT22;59335;46.652;21.272;2023-08-06T18:51:11;29.69;45.05
71514;DHT22;59335;46.652;21.272;2023-08-06T18:54:14;29.69;45.02
71514;DHT22;59335;46.652;21.272;2023-08-06T18:57:18;29.69;45.07
71514;DHT22;59335;46.652;21.272;2023-08-06T19:00:21;29.67;45.08
71514;DHT22;59335;46.652;21.272;2023-08-06T19:03:27;29.65;45.07
71514;DHT22;59335;46.652;21.272;2023-08-06T19:06:31;29.69;45.14
71514;DHT22;59335;46.652;21.272;2023-08-06T19:09:36;29.67;45.00
71514;DHT22;59335;46.652;21.272;2023-08-06T19:12:39;29.66;45.10
71514;DHT22;59335;46.652;21.272;2023-08-06T19:15:48;29.67;44.99